Terminal Aerodrome Forecast
Issued by NWS

Home | Current Version | Previous Version | Text Only | Print | Product List | Glossary Off
Versions: 1 2 3 4 5 6 7 8 9 10 11

000
FTUS45 KGGW 162320
TAFGDV
TAF
KGDV 162320Z 1700/1724 25013KT P6SM VCSH OVC070
     FM170300 25007KT P6SM VCSH OVC060
     FM171200 32012KT P6SM BKN070
     FM171500 28008KT P6SM SCT040=

USA.gov is the U.S. government's official web portal to all federal, state and local government web resources and services.